sensor_id;sensor_type;location;lat;lon;timestamp;temperature;humidity
52889;DHT22;41413;52.770;6.892;2023-02-11T00:00:22;6.40;99.90
52889;DHT22;41413;52.770;6.892;2023-02-11T00:02:49;6.40;99.90
52889;DHT22;41413;52.770;6.892;2023-02-11T00:05:16;6.50;99.90
52889;DHT22;41413;52.770;6.892;2023-02-11T00:07:43;6.40;99.90
52889;DHT22;41413;52.770;6.892;2023-02-11T00:10:09;6.50;99.90
52889;DHT22;41413;52.770;6.892;2023-02-11T00:12:36;6.40;99.90
52889;DHT22;41413;52.770;6.892;2023-02-11T00:15:05;6.50;99.90
52889;DHT22;41413;52.770;6.892;2023-02-11T00:17:32;6.50;99.90
52889;DHT22;41413;52.770;6.892;2023-02-11T00:19:59;6.60;99.90
52889;DHT22;41413;52.770;6.892;2023-02-11T00:22:26;6.50;99.90
52889;DHT22;41413;52.770;6.892;2023-02-11T00:24:53;6.60;99.90
52889;DHT22;41413;52.770;6.892;2023-02-11T00:27:19;6.50;99.90
52889;DHT22;41413;52.770;6.892;2023-02-11T00:29:46;6.50;99.90
52889;DHT22;41413;52.770;6.892;2023-02-11T00:32:13;6.50;99.90
52889;DHT22;41413;52.770;6.892;2023-02-11T00:34:39;6.50;99.90
52889;DHT22;41413;52.770;6.892;2023-02-11T00:37:06;6.50;99.90
52889;DHT22;41413;52.770;6.892;2023-02-11T00:39:32;6.50;99.90
52889;DHT22;41413;52.770;6.892;2023-02-11T00:41:59;6.50;99.90
52889;DHT22;41413;52.770;6.892;2023-02-11T00:44:26;6.50;99.90
52889;DHT22;41413;52.770;6.892;2023-02-11T00:46:52;6.50;99.90
52889;DHT22;41413;52.770;6.892;2023-02-11T00:49:19;6.50;99.90
52889;DHT22;41413;52.770;6.892;2023-02-11T00:51:46;6.60;99.90
52889;DHT22;41413;52.770;6.892;2023-02-11T00:54:13;6.50;99.90
52889;DHT22;41413;52.770;6.892;2023-02-11T00:56:39;6.60;99.90
52889;DHT22;41413;52.770;6.892;2023-02-11T00:59:06;6.50;99.90
52889;DHT22;41413;52.770;6.892;2023-02-11T01:01:33;6.60;99.90
52889;DHT22;41413;52.770;6.892;2023-02-11T01:04:00;6.50;99.90
52889;DHT22;41413;52.770;6.892;2023-02-11T01:06:26;6.60;99.90
52889;DHT22;41413;52.770;6.892;2023-02-11T01:08:53;6.50;99.90
52889;DHT22;41413;52.770;6.892;2023-02-11T01:11:20;6.50;99.90
52889;DHT22;41413;52.770;6.892;2023-02-11T01:13:48;6.50;99.90
52889;DHT22;41413;52.770;6.892;2023-02-11T01:16:17;6.60;99.90
52889;DHT22;41413;52.770;6.892;2023-02-11T01:18:44;6.50;99.90
52889;DHT22;41413;52.770;6.892;2023-02-11T01:21:11;6.50;99.90
52889;DHT22;41413;52.770;6.892;2023-02-11T01:23:38;6.50;99.90
52889;DHT22;41413;52.770;6.892;2023-02-11T01:26:05;6.50;99.90
52889;DHT22;41413;52.770;6.892;2023-02-11T01:28:32;6.60;99.90
52889;DHT22;41413;52.770;6.892;2023-02-11T01:31:00;6.50;99.90
52889;DHT22;41413;52.770;6.892;2023-02-11T01:33:28;6.50;99.90
52889;DHT22;41413;52.770;6.892;2023-02-11T01:35:54;6.50;99.90
52889;DHT22;41413;52.770;6.892;2023-02-11T01:38:25;6.60;99.90
52889;DHT22;41413;52.770;6.892;2023-02-11T01:40:53;6.60;99.90
52889;DHT22;41413;52.770;6.892;2023-02-11T01:43:21;6.60;99.90
52889;DHT22;41413;52.770;6.892;2023-02-11T01:45:56;6.60;99.90
52889;DHT22;41413;52.770;6.892;2023-02-11T01:48:30;6.60;99.90
52889;DHT22;41413;52.770;6.892;2023-02-11T01:51:05;6.60;99.90
52889;DHT22;41413;52.770;6.892;2023-02-11T01:53:33;6.60;99.90
52889;DHT22;41413;52.770;6.892;2023-02-11T01:56:21;6.60;99.90
52889;DHT22;41413;52.770;6.892;2023-02-11T01:59:16;6.60;99.90
52889;DHT22;41413;52.770;6.892;2023-02-11T02:01:49;6.60;99.90
52889;DHT22;41413;52.770;6.892;2023-02-11T02:04:18;6.60;99.90
52889;DHT22;41413;52.770;6.892;2023-02-11T02:06:51;6.50;99.90
52889;DHT22;41413;52.770;6.892;2023-02-11T02:09:22;6.60;99.90
52889;DHT22;41413;52.770;6.892;2023-02-11T02:11:50;6.60;99.90
52889;DHT22;41413;52.770;6.892;2023-02-11T02:14:17;6.50;99.90
52889;DHT22;41413;52.770;6.892;2023-02-11T02:16:44;6.50;99.90
52889;DHT22;41413;52.770;6.892;2023-02-11T02:36:09;6.50;99.90
52889;DHT22;41413;52.770;6.892;2023-02-11T02:38:56;6.50;99.90
52889;DHT22;41413;52.770;6.892;2023-02-11T02:41:28;6.50;99.90
52889;DHT22;41413;52.770;6.892;2023-02-11T02:43:55;6.60;99.90
52889;DHT22;41413;52.770;6.892;2023-02-11T02:46:25;6.60;99.90
52889;DHT22;41413;52.770;6.892;2023-02-11T02:48:53;6.50;99.90
52889;DHT22;41413;52.770;6.892;2023-02-11T03:00:04;6.70;99.90
52889;DHT22;41413;52.770;6.892;2023-02-11T03:08:41;6.70;99.90
52889;DHT22;41413;52.770;6.892;2023-02-11T03:11:10;6.70;99.90
52889;DHT22;41413;52.770;6.892;2023-02-11T03:13:39;6.60;99.90
52889;DHT22;41413;52.770;6.892;2023-02-11T03:16:12;6.70;99.90
52889;DHT22;41413;52.770;6.892;2023-02-11T03:18:43;6.70;99.90
52889;DHT22;41413;52.770;6.892;2023-02-11T03:21:12;6.70;99.90
52889;DHT22;41413;52.770;6.892;2023-02-11T03:23:43;6.70;99.90
52889;DHT22;41413;52.770;6.892;2023-02-11T03:28:58;6.60;99.90
52889;DHT22;41413;52.770;6.892;2023-02-11T03:37:17;6.60;99.90
52889;DHT22;41413;52.770;6.892;2023-02-11T03:39:56;6.70;99.90
52889;DHT22;41413;52.770;6.892;2023-02-11T03:42:30;6.70;99.90
52889;DHT22;41413;52.770;6.892;2023-02-11T03:45:05;6.70;99.90
52889;DHT22;41413;52.770;6.892;2023-02-11T03:47:35;6.70;99.90
52889;DHT22;41413;52.770;6.892;2023-02-11T03:50:05;6.70;99.90
52889;DHT22;41413;52.770;6.892;2023-02-11T03:52:34;6.70;99.90
52889;DHT22;41413;52.770;6.892;2023-02-11T03:55:14;6.70;99.90
52889;DHT22;41413;52.770;6.892;2023-02-11T03:57:42;6.70;99.90
52889;DHT22;41413;52.770;6.892;2023-02-11T04:00:10;6.70;99.90
52889;DHT22;41413;52.770;6.892;2023-02-11T04:02:38;6.60;99.90
52889;DHT22;41413;52.770;6.892;2023-02-11T04:05:07;6.70;99.90
52889;DHT22;41413;52.770;6.892;2023-02-11T04:07:34;6.70;99.90
52889;DHT22;41413;52.770;6.892;2023-02-11T04:10:00;6.70;99.90
52889;DHT22;41413;52.770;6.892;2023-02-11T04:12:27;6.70;99.90
52889;DHT22;41413;52.770;6.892;2023-02-11T04:14:54;6.70;99.90
52889;DHT22;41413;52.770;6.892;2023-02-11T04:17:20;6.70;99.90
52889;DHT22;41413;52.770;6.892;2023-02-11T04:19:47;6.60;99.90
52889;DHT22;41413;52.770;6.892;2023-02-11T04:22:14;6.60;99.90
52889;DHT22;41413;52.770;6.892;2023-02-11T04:24:40;6.60;99.90
52889;DHT22;41413;52.770;6.892;2023-02-11T04:27:09;6.60;99.90
52889;DHT22;41413;52.770;6.892;2023-02-11T04:29:36;6.60;99.90
52889;DHT22;41413;52.770;6.892;2023-02-11T04:32:02;6.60;99.90
52889;DHT22;41413;52.770;6.892;2023-02-11T04:34:29;6.60;99.90
52889;DHT22;41413;52.770;6.892;2023-02-11T04:36:56;6.60;99.90
52889;DHT22;41413;52.770;6.892;2023-02-11T04:39:23;6.60;99.90
52889;DHT22;41413;52.770;6.892;2023-02-11T04:41:50;6.60;99.90
52889;DHT22;41413;52.770;6.892;2023-02-11T04:44:16;6.60;99.90
52889;DHT22;41413;52.770;6.892;2023-02-11T04:46:44;6.70;99.90
52889;DHT22;41413;52.770;6.892;2023-02-11T04:49:14;6.70;99.90
52889;DHT22;41413;52.770;6.892;2023-02-11T04:51:42;6.70;99.90
52889;DHT22;41413;52.770;6.892;2023-02-11T04:54:13;6.70;99.90
52889;DHT22;41413;52.770;6.892;2023-02-11T04:56:39;6.70;99.90
52889;DHT22;41413;52.770;6.892;2023-02-11T04:59:06;6.80;99.90
52889;DHT22;41413;52.770;6.892;2023-02-11T05:01:33;6.70;99.90
52889;DHT22;41413;52.770;6.892;2023-02-11T05:04:00;6.70;99.90
52889;DHT22;41413;52.770;6.892;2023-02-11T05:06:27;6.70;99.90
52889;DHT22;41413;52.770;6.892;2023-02-11T05:08:53;6.80;99.90
52889;DHT22;41413;52.770;6.892;2023-02-11T05:11:23;6.70;99.90
52889;DHT22;41413;52.770;6.892;2023-02-11T05:13:50;6.70;99.90
52889;DHT22;41413;52.770;6.892;2023-02-11T05:16:17;6.70;99.90
52889;DHT22;41413;52.770;6.892;2023-02-11T05:18:44;6.70;99.90
52889;DHT22;41413;52.770;6.892;2023-02-11T05:21:14;6.70;99.90
52889;DHT22;41413;52.770;6.892;2023-02-11T05:23:42;6.80;99.90
52889;DHT22;41413;52.770;6.892;2023-02-11T05:26:10;6.80;99.90
52889;DHT22;41413;52.770;6.892;2023-02-11T05:28:37;6.80;99.90
52889;DHT22;41413;52.770;6.892;2023-02-11T05:31:05;6.70;99.90
52889;DHT22;41413;52.770;6.892;2023-02-11T05:33:32;6.80;99.90
52889;DHT22;41413;52.770;6.892;2023-02-11T05:36:00;6.80;99.90
52889;DHT22;41413;52.770;6.892;2023-02-11T05:38:27;6.80;99.90
52889;DHT22;41413;52.770;6.892;2023-02-11T05:40:54;6.80;99.90
52889;DHT22;41413;52.770;6.892;2023-02-11T05:43:21;6.90;99.90
52889;DHT22;41413;52.770;6.892;2023-02-11T05:45:47;6.90;99.90
52889;DHT22;41413;52.770;6.892;2023-02-11T05:48:15;6.90;99.90
52889;DHT22;41413;52.770;6.892;2023-02-11T05:50:43;6.90;99.90
52889;DHT22;41413;52.770;6.892;2023-02-11T05:53:11;6.90;99.90
52889;DHT22;41413;52.770;6.892;2023-02-11T05:55:37;6.90;99.90
52889;DHT22;41413;52.770;6.892;2023-02-11T05:58:05;6.90;99.90
52889;DHT22;41413;52.770;6.892;2023-02-11T06:00:32;6.90;99.90
52889;DHT22;41413;52.770;6.892;2023-02-11T06:02:59;7.00;99.90
52889;DHT22;41413;52.770;6.892;2023-02-11T06:05:26;6.90;99.90
52889;DHT22;41413;52.770;6.892;2023-02-11T06:07:53;7.00;99.90
52889;DHT22;41413;52.770;6.892;2023-02-11T06:10:20;7.00;99.90
52889;DHT22;41413;52.770;6.892;2023-02-11T06:12:47;6.90;99.90
52889;DHT22;41413;52.770;6.892;2023-02-11T06:15:13;6.90;99.90
52889;DHT22;41413;52.770;6.892;2023-02-11T06:17:40;6.90;99.90
52889;DHT22;41413;52.770;6.892;2023-02-11T06:20:08;7.00;99.90
52889;DHT22;41413;52.770;6.892;2023-02-11T06:22:35;7.10;99.90
52889;DHT22;41413;52.770;6.892;2023-02-11T06:25:02;6.90;99.90
52889;DHT22;41413;52.770;6.892;2023-02-11T06:27:30;6.90;99.90
52889;DHT22;41413;52.770;6.892;2023-02-11T06:29:56;6.90;99.90
52889;DHT22;41413;52.770;6.892;2023-02-11T06:32:23;6.90;99.90
52889;DHT22;41413;52.770;6.892;2023-02-11T06:35:09;6.90;99.90
52889;DHT22;41413;52.770;6.892;2023-02-11T06:37:38;7.00;99.90
52889;DHT22;41413;52.770;6.892;2023-02-11T06:40:05;6.90;99.90
52889;DHT22;41413;52.770;6.892;2023-02-11T06:42:32;6.90;99.90
52889;DHT22;41413;52.770;6.892;2023-02-11T06:44:59;6.90;99.90
52889;DHT22;41413;52.770;6.892;2023-02-11T06:47:26;6.90;99.90
52889;DHT22;41413;52.770;6.892;2023-02-11T06:49:53;7.00;99.90
52889;DHT22;41413;52.770;6.892;2023-02-11T06:52:20;6.90;99.90
52889;DHT22;41413;52.770;6.892;2023-02-11T06:54:46;6.90;99.90
52889;DHT22;41413;52.770;6.892;2023-02-11T06:57:13;6.90;99.90
52889;DHT22;41413;52.770;6.892;2023-02-11T06:59:40;6.90;99.90
52889;DHT22;41413;52.770;6.892;2023-02-11T07:02:09;6.90;99.90
52889;DHT22;41413;52.770;6.892;2023-02-11T07:04:35;6.90;99.90
52889;DHT22;41413;52.770;6.892;2023-02-11T07:07:02;6.90;99.90
52889;DHT22;41413;52.770;6.892;2023-02-11T07:09:29;6.90;99.90
52889;DHT22;41413;52.770;6.892;2023-02-11T07:11:55;6.90;99.90
52889;DHT22;41413;52.770;6.892;2023-02-11T07:14:22;6.90;99.90
52889;DHT22;41413;52.770;6.892;2023-02-11T07:16:49;6.90;99.90
52889;DHT22;41413;52.770;6.892;2023-02-11T07:19:16;6.90;99.90
52889;DHT22;41413;52.770;6.892;2023-02-11T07:21:43;6.80;99.90
52889;DHT22;41413;52.770;6.892;2023-02-11T07:24:09;6.90;99.90
52889;DHT22;41413;52.770;6.892;2023-02-11T07:26:37;6.90;99.90
52889;DHT22;41413;52.770;6.892;2023-02-11T07:29:04;6.90;99.90
52889;DHT22;41413;52.770;6.892;2023-02-11T07:31:31;6.90;99.90
52889;DHT22;41413;52.770;6.892;2023-02-11T07:33:59;6.90;99.90
52889;DHT22;41413;52.770;6.892;2023-02-11T07:36:28;7.00;99.90
52889;DHT22;41413;52.770;6.892;2023-02-11T07:38:55;7.00;99.90
52889;DHT22;41413;52.770;6.892;2023-02-11T07:41:22;7.00;99.90
52889;DHT22;41413;52.770;6.892;2023-02-11T07:43:50;7.00;99.90
52889;DHT22;41413;52.770;6.892;2023-02-11T07:46:22;7.10;99.90
52889;DHT22;41413;52.770;6.892;2023-02-11T07:48:49;7.10;99.90
52889;DHT22;41413;52.770;6.892;2023-02-11T07:53:45;7.10;99.90
52889;DHT22;41413;52.770;6.892;2023-02-11T07:56:13;7.20;99.90
52889;DHT22;41413;52.770;6.892;2023-02-11T07:58:40;7.20;99.90
52889;DHT22;41413;52.770;6.892;2023-02-11T08:01:11;7.20;99.90
52889;DHT22;41413;52.770;6.892;2023-02-11T08:03:39;7.20;99.90
52889;DHT22;41413;52.770;6.892;2023-02-11T08:06:12;7.20;99.90
52889;DHT22;41413;52.770;6.892;2023-02-11T08:08:39;7.20;99.90
52889;DHT22;41413;52.770;6.892;2023-02-11T08:11:11;7.30;99.90
52889;DHT22;41413;52.770;6.892;2023-02-11T08:13:38;7.30;99.90
52889;DHT22;41413;52.770;6.892;2023-02-11T08:16:05;7.20;99.90
52889;DHT22;41413;52.770;6.892;2023-02-11T08:18:33;7.30;99.90
52889;DHT22;41413;52.770;6.892;2023-02-11T08:21:05;7.30;99.90
52889;DHT22;41413;52.770;6.892;2023-02-11T08:23:32;7.30;99.90
52889;DHT22;41413;52.770;6.892;2023-02-11T08:26:03;7.30;99.90
52889;DHT22;41413;52.770;6.892;2023-02-11T08:28:30;7.30;99.90
52889;DHT22;41413;52.770;6.892;2023-02-11T08:31:07;7.30;99.90
52889;DHT22;41413;52.770;6.892;2023-02-11T08:33:34;7.40;99.90
52889;DHT22;41413;52.770;6.892;2023-02-11T08:36:06;7.40;99.90
52889;DHT22;41413;52.770;6.892;2023-02-11T08:38:33;7.40;99.90
52889;DHT22;41413;52.770;6.892;2023-02-11T08:41:00;7.50;99.90
52889;DHT22;41413;52.770;6.892;2023-02-11T08:43:27;7.60;99.90
52889;DHT22;41413;52.770;6.892;2023-02-11T08:45:53;7.60;99.90
52889;DHT22;41413;52.770;6.892;2023-02-11T08:48:20;7.60;99.90
52889;DHT22;41413;52.770;6.892;2023-02-11T08:50:47;7.70;99.90
52889;DHT22;41413;52.770;6.892;2023-02-11T08:53:13;7.70;99.90
52889;DHT22;41413;52.770;6.892;2023-02-11T08:55:50;7.70;99.90
52889;DHT22;41413;52.770;6.892;2023-02-11T08:58:18;7.70;99.90
52889;DHT22;41413;52.770;6.892;2023-02-11T09:00:46;7.80;99.90
52889;DHT22;41413;52.770;6.892;2023-02-11T09:03:14;7.80;99.90
52889;DHT22;41413;52.770;6.892;2023-02-11T09:05:45;7.80;99.90
52889;DHT22;41413;52.770;6.892;2023-02-11T09:08:13;7.70;99.90
52889;DHT22;41413;52.770;6.892;2023-02-11T09:10:40;7.80;99.90
52889;DHT22;41413;52.770;6.892;2023-02-11T09:13:07;7.90;99.90
52889;DHT22;41413;52.770;6.892;2023-02-11T09:15:34;7.90;99.90
52889;DHT22;41413;52.770;6.892;2023-02-11T09:18:01;7.90;99.90
52889;DHT22;41413;52.770;6.892;2023-02-11T09:20:27;7.90;99.90
52889;DHT22;41413;52.770;6.892;2023-02-11T09:22:57;7.90;99.90
52889;DHT22;41413;52.770;6.892;2023-02-11T09:25:24;7.90;99.90
52889;DHT22;41413;52.770;6.892;2023-02-11T09:27:51;7.90;99.90
52889;DHT22;41413;52.770;6.892;2023-02-11T09:30:19;7.90;99.90
52889;DHT22;41413;52.770;6.892;2023-02-11T09:32:46;8.40;99.90
52889;DHT22;41413;52.770;6.892;2023-02-11T09:35:12;8.00;99.90
52889;DHT22;41413;52.770;6.892;2023-02-11T09:37:39;8.00;99.90
52889;DHT22;41413;52.770;6.892;2023-02-11T09:40:06;8.00;99.90
52889;DHT22;41413;52.770;6.892;2023-02-11T09:42:40;8.00;99.90
52889;DHT22;41413;52.770;6.892;2023-02-11T09:45:17;8.10;99.90
52889;DHT22;41413;52.770;6.892;2023-02-11T09:47:48;8.10;99.90
52889;DHT22;41413;52.770;6.892;2023-02-11T09:50:34;8.20;99.90
52889;DHT22;41413;52.770;6.892;2023-02-11T09:56:02;8.30;99.90
52889;DHT22;41413;52.770;6.892;2023-02-11T09:58:35;8.30;99.90
52889;DHT22;41413;52.770;6.892;2023-02-11T10:06:56;8.50;99.90
52889;DHT22;41413;52.770;6.892;2023-02-11T10:09:47;8.50;99.90
52889;DHT22;41413;52.770;6.892;2023-02-11T10:12:37;8.50;99.90
52889;DHT22;41413;52.770;6.892;2023-02-11T10:20:59;8.60;99.90
52889;DHT22;41413;52.770;6.892;2023-02-11T10:23:38;8.60;99.90
52889;DHT22;41413;52.770;6.892;2023-02-11T10:26:15;8.70;99.90
52889;DHT22;41413;52.770;6.892;2023-02-11T10:28:45;8.80;99.90
52889;DHT22;41413;52.770;6.892;2023-02-11T10:31:25;8.70;99.90
52889;DHT22;41413;52.770;6.892;2023-02-11T10:34:06;8.80;99.90
52889;DHT22;41413;52.770;6.892;2023-02-11T10:36:41;8.80;99.90
52889;DHT22;41413;52.770;6.892;2023-02-11T10:39:17;8.80;99.90
52889;DHT22;41413;52.770;6.892;2023-02-11T10:41:48;8.90;99.90
52889;DHT22;41413;52.770;6.892;2023-02-11T10:46:48;9.00;99.90
52889;DHT22;41413;52.770;6.892;2023-02-11T10:49:40;8.90;99.90
52889;DHT22;41413;52.770;6.892;2023-02-11T10:52:20;9.00;99.90
52889;DHT22;41413;52.770;6.892;2023-02-11T10:55:04;9.00;99.90
52889;DHT22;41413;52.770;6.892;2023-02-11T10:57:41;9.00;99.90
52889;DHT22;41413;52.770;6.892;2023-02-11T11:03:25;9.20;99.90
52889;DHT22;41413;52.770;6.892;2023-02-11T11:05:54;9.20;99.90
52889;DHT22;41413;52.770;6.892;2023-02-11T11:11:08;9.30;99.90
52889;DHT22;41413;52.770;6.892;2023-02-11T11:13:41;9.30;99.90
52889;DHT22;41413;52.770;6.892;2023-02-11T11:16:30;9.30;99.90
52889;DHT22;41413;52.770;6.892;2023-02-11T11:24:03;9.30;99.90
52889;DHT22;41413;52.770;6.892;2023-02-11T11:26:41;9.30;99.90
52889;DHT22;41413;52.770;6.892;2023-02-11T11:29:14;9.30;99.90
52889;DHT22;41413;52.770;6.892;2023-02-11T11:31:50;9.40;99.90
52889;DHT22;41413;52.770;6.892;2023-02-11T11:34:27;9.30;99.90
52889;DHT22;41413;52.770;6.892;2023-02-11T11:36:56;9.30;99.90
52889;DHT22;41413;52.770;6.892;2023-02-11T11:39:29;9.30;99.90
52889;DHT22;41413;52.770;6.892;2023-02-11T11:41:59;9.40;99.90
52889;DHT22;41413;52.770;6.892;2023-02-11T11:44:35;9.30;99.90
52889;DHT22;41413;52.770;6.892;2023-02-11T11:55:20;9.20;99.90
52889;DHT22;41413;52.770;6.892;2023-02-11T11:57:47;9.20;99.90
52889;DHT22;41413;52.770;6.892;2023-02-11T12:00:40;9.20;99.90
52889;DHT22;41413;52.770;6.892;2023-02-11T12:06:06;9.20;99.90
52889;DHT22;41413;52.770;6.892;2023-02-11T12:08:48;9.10;99.90
52889;DHT22;41413;52.770;6.892;2023-02-11T12:14:36;9.10;99.90
52889;DHT22;41413;52.770;6.892;2023-02-11T12:17:32;9.10;99.90
52889;DHT22;41413;52.770;6.892;2023-02-11T12:20:28;9.10;99.90
52889;DHT22;41413;52.770;6.892;2023-02-11T12:28:27;9.30;99.90
52889;DHT22;41413;52.770;6.892;2023-02-11T12:31:23;9.30;99.90
52889;DHT22;41413;52.770;6.892;2023-02-11T12:39:33;9.50;99.90
52889;DHT22;41413;52.770;6.892;2023-02-11T12:53:24;9.70;99.90
52889;DHT22;41413;52.770;6.892;2023-02-11T12:56:02;9.60;99.90
52889;DHT22;41413;52.770;6.892;2023-02-11T12:58:33;9.60;99.90
52889;DHT22;41413;52.770;6.892;2023-02-11T13:01:25;9.70;99.90
52889;DHT22;41413;52.770;6.892;2023-02-11T13:03:56;9.70;99.90
52889;DHT22;41413;52.770;6.892;2023-02-11T13:06:36;10.00;99.90
52889;DHT22;41413;52.770;6.892;2023-02-11T13:09:10;9.70;99.90
52889;DHT22;41413;52.770;6.892;2023-02-11T13:11:44;9.70;99.90
52889;DHT22;41413;52.770;6.892;2023-02-11T13:14:25;9.80;99.90
52889;DHT22;41413;52.770;6.892;2023-02-11T13:16:53;9.90;99.90
52889;DHT22;41413;52.770;6.892;2023-02-11T13:22:06;9.80;99.90
52889;DHT22;41413;52.770;6.892;2023-02-11T13:38:01;9.80;99.90
52889;DHT22;41413;52.770;6.892;2023-02-11T13:40:36;9.80;99.90
52889;DHT22;41413;52.770;6.892;2023-02-11T13:43:05;9.90;99.90
52889;DHT22;41413;52.770;6.892;2023-02-11T13:45:45;9.80;99.90
52889;DHT22;41413;52.770;6.892;2023-02-11T13:48:19;9.80;99.90
52889;DHT22;41413;52.770;6.892;2023-02-11T13:50:49;9.90;99.90
52889;DHT22;41413;52.770;6.892;2023-02-11T13:53:18;9.90;99.90
52889;DHT22;41413;52.770;6.892;2023-02-11T13:55:48;10.00;99.90
52889;DHT22;41413;52.770;6.892;2023-02-11T13:58:32;10.00;99.90
52889;DHT22;41413;52.770;6.892;2023-02-11T14:01:02;10.00;99.90
52889;DHT22;41413;52.770;6.892;2023-02-11T14:03:31;10.10;99.90
52889;DHT22;41413;52.770;6.892;2023-02-11T14:06:23;10.20;99.90
52889;DHT22;41413;52.770;6.892;2023-02-11T14:14:25;10.20;99.90
52889;DHT22;41413;52.770;6.892;2023-02-11T14:19:38;10.20;99.90
52889;DHT22;41413;52.770;6.892;2023-02-11T14:32:43;10.30;99.90
52889;DHT22;41413;52.770;6.892;2023-02-11T14:41:04;10.20;99.90
52889;DHT22;41413;52.770;6.892;2023-02-11T14:43:39;10.20;99.90
52889;DHT22;41413;52.770;6.892;2023-02-11T14:46:06;10.20;99.90
52889;DHT22;41413;52.770;6.892;2023-02-11T14:48:35;10.20;99.90
52889;DHT22;41413;52.770;6.892;2023-02-11T14:51:14;10.30;99.90
52889;DHT22;41413;52.770;6.892;2023-02-11T14:53:48;10.20;99.90
52889;DHT22;41413;52.770;6.892;2023-02-11T14:56:22;10.20;99.90
52889;DHT22;41413;52.770;6.892;2023-02-11T14:58:53;10.20;99.90
52889;DHT22;41413;52.770;6.892;2023-02-11T15:01:31;10.20;99.90
52889;DHT22;41413;52.770;6.892;2023-02-11T15:04:03;10.20;99.90
52889;DHT22;41413;52.770;6.892;2023-02-11T15:06:38;10.20;99.90
52889;DHT22;41413;52.770;6.892;2023-02-11T15:11:48;10.30;99.90
52889;DHT22;41413;52.770;6.892;2023-02-11T15:14:29;10.30;99.90
52889;DHT22;41413;52.770;6.892;2023-02-11T15:17:00;10.30;99.90
52889;DHT22;41413;52.770;6.892;2023-02-11T15:19:30;10.30;99.90
52889;DHT22;41413;52.770;6.892;2023-02-11T15:22:05;10.30;99.90
52889;DHT22;41413;52.770;6.892;2023-02-11T15:24:33;10.30;99.90
52889;DHT22;41413;52.770;6.892;2023-02-11T15:27:12;10.30;99.90
52889;DHT22;41413;52.770;6.892;2023-02-11T15:29:45;10.30;99.90
52889;DHT22;41413;52.770;6.892;2023-02-11T15:32:21;10.20;99.90
52889;DHT22;41413;52.770;6.892;2023-02-11T15:34:50;10.10;99.90
52889;DHT22;41413;52.770;6.892;2023-02-11T15:37:22;10.10;99.90
52889;DHT22;41413;52.770;6.892;2023-02-11T15:39:50;10.10;99.90
52889;DHT22;41413;52.770;6.892;2023-02-11T15:42:29;10.00;99.90
52889;DHT22;41413;52.770;6.892;2023-02-11T15:47:45;10.00;99.90
52889;DHT22;41413;52.770;6.892;2023-02-11T15:50:25;9.90;99.90
52889;DHT22;41413;52.770;6.892;2023-02-11T15:52:55;9.90;99.90
52889;DHT22;41413;52.770;6.892;2023-02-11T15:55:22;9.80;99.90
52889;DHT22;41413;52.770;6.892;2023-02-11T15:57:54;9.80;99.90
52889;DHT22;41413;52.770;6.892;2023-02-11T16:00:23;9.80;99.90
52889;DHT22;41413;52.770;6.892;2023-02-11T16:02:55;9.70;99.90
52889;DHT22;41413;52.770;6.892;2023-02-11T16:05:34;9.70;99.90
52889;DHT22;41413;52.770;6.892;2023-02-11T16:08:25;9.70;99.90
52889;DHT22;41413;52.770;6.892;2023-02-11T16:13:25;9.60;99.90
52889;DHT22;41413;52.770;6.892;2023-02-11T16:15:58;9.60;99.90
52889;DHT22;41413;52.770;6.892;2023-02-11T16:18:33;9.60;99.90
52889;DHT22;41413;52.770;6.892;2023-02-11T16:21:11;9.60;99.90
52889;DHT22;41413;52.770;6.892;2023-02-11T16:23:42;9.50;99.90
52889;DHT22;41413;52.770;6.892;2023-02-11T16:26:25;9.50;99.90
52889;DHT22;41413;52.770;6.892;2023-02-11T16:29:10;9.50;99.90
52889;DHT22;41413;52.770;6.892;2023-02-11T16:31:41;9.40;99.90
52889;DHT22;41413;52.770;6.892;2023-02-11T16:34:21;9.40;99.90
52889;DHT22;41413;52.770;6.892;2023-02-11T16:36:49;9.40;99.90
52889;DHT22;41413;52.770;6.892;2023-02-11T16:39:18;9.40;99.90
52889;DHT22;41413;52.770;6.892;2023-02-11T16:41:50;9.30;99.90
52889;DHT22;41413;52.770;6.892;2023-02-11T16:44:17;9.30;99.90
52889;DHT22;41413;52.770;6.892;2023-02-11T16:46:44;9.30;99.90
52889;DHT22;41413;52.770;6.892;2023-02-11T16:51:48;9.30;99.90
52889;DHT22;41413;52.770;6.892;2023-02-11T16:54:16;9.20;99.90
52889;DHT22;41413;52.770;6.892;2023-02-11T16:56:44;9.20;99.90
52889;DHT22;41413;52.770;6.892;2023-02-11T16:59:11;9.20;99.90
52889;DHT22;41413;52.770;6.892;2023-02-11T17:01:40;9.20;99.90
52889;DHT22;41413;52.770;6.892;2023-02-11T17:04:24;9.20;99.90
52889;DHT22;41413;52.770;6.892;2023-02-11T17:06:51;9.20;99.90
52889;DHT22;41413;52.770;6.892;2023-02-11T17:09:20;9.20;99.90
52889;DHT22;41413;52.770;6.892;2023-02-11T17:11:47;9.10;99.90
52889;DHT22;41413;52.770;6.892;2023-02-11T17:14:14;9.10;99.90
52889;DHT22;41413;52.770;6.892;2023-02-11T17:16:42;9.10;99.90
52889;DHT22;41413;52.770;6.892;2023-02-11T17:19:12;9.10;99.90
52889;DHT22;41413;52.770;6.892;2023-02-11T17:21:43;9.10;99.90
52889;DHT22;41413;52.770;6.892;2023-02-11T17:24:10;9.10;99.90
52889;DHT22;41413;52.770;6.892;2023-02-11T17:26:37;9.00;99.90
52889;DHT22;41413;52.770;6.892;2023-02-11T17:29:05;9.00;99.90
52889;DHT22;41413;52.770;6.892;2023-02-11T17:31:32;9.00;99.90
52889;DHT22;41413;52.770;6.892;2023-02-11T17:33:59;9.00;99.90
52889;DHT22;41413;52.770;6.892;2023-02-11T17:36:26;8.90;99.90
52889;DHT22;41413;52.770;6.892;2023-02-11T17:38:53;9.00;99.90
52889;DHT22;41413;52.770;6.892;2023-02-11T17:41:20;9.00;99.90
52889;DHT22;41413;52.770;6.892;2023-02-11T17:43:47;9.00;99.90
52889;DHT22;41413;52.770;6.892;2023-02-11T17:46:13;8.90;99.90
52889;DHT22;41413;52.770;6.892;2023-02-11T17:48:40;8.90;99.90
52889;DHT22;41413;52.770;6.892;2023-02-11T17:51:27;8.90;99.90
52889;DHT22;41413;52.770;6.892;2023-02-11T17:53:56;8.90;99.90
52889;DHT22;41413;52.770;6.892;2023-02-11T17:56:23;8.90;99.90
52889;DHT22;41413;52.770;6.892;2023-02-11T17:58:50;8.80;99.90
52889;DHT22;41413;52.770;6.892;2023-02-11T18:01:18;8.90;99.90
52889;DHT22;41413;52.770;6.892;2023-02-11T18:03:45;8.90;99.90
52889;DHT22;41413;52.770;6.892;2023-02-11T18:06:12;8.90;99.90
52889;DHT22;41413;52.770;6.892;2023-02-11T18:08:39;8.80;99.90
52889;DHT22;41413;52.770;6.892;2023-02-11T18:11:11;8.70;99.90
52889;DHT22;41413;52.770;6.892;2023-02-11T18:13:38;8.70;99.90
52889;DHT22;41413;52.770;6.892;2023-02-11T18:16:06;8.70;99.90
52889;DHT22;41413;52.770;6.892;2023-02-11T18:18:42;8.70;99.90
52889;DHT22;41413;52.770;6.892;2023-02-11T18:21:16;8.60;99.90
52889;DHT22;41413;52.770;6.892;2023-02-11T18:23:43;8.70;99.90
52889;DHT22;41413;52.770;6.892;2023-02-11T18:26:12;8.70;99.90
52889;DHT22;41413;52.770;6.892;2023-02-11T18:28:39;8.60;99.90
52889;DHT22;41413;52.770;6.892;2023-02-11T18:31:10;8.60;99.90
52889;DHT22;41413;52.770;6.892;2023-02-11T18:33:38;8.60;99.90
52889;DHT22;41413;52.770;6.892;2023-02-11T18:36:06;8.50;99.90
52889;DHT22;41413;52.770;6.892;2023-02-11T18:38:34;8.50;99.90
52889;DHT22;41413;52.770;6.892;2023-02-11T18:41:01;8.50;99.90
52889;DHT22;41413;52.770;6.892;2023-02-11T18:43:27;8.50;99.90